Time;durP1;ratioP1;P1;durP2;ratioP2;P2;SDS_P1;SDS_P2;PMS_P1;PMS_P2;Temp;Humidity;BMP_temperature;BMP_pressure;BME280_temperature;BME280_humidity;BME280_pressure;Samples;Min_cycle;Max_cycle;Signal;HPM_P1;HPM_P2
2020/12/15 00:00:22;;;;;;;26.27;14.10;;;;;;;;;;722752;190;915265;-70
2020/12/15 00:02:48;;;;;;;26.83;13.17;;;;;;;;;;725340;190;915707;-71
2020/12/15 00:05:14;;;;;;;35.00;16.10;;;;;;;;;;722828;190;914880;-70
2020/12/15 00:07:40;;;;;;;26.47;15.10;;;;;;;;;;723559;190;923187;-70
2020/12/15 00:10:06;;;;;;;24.70;13.50;;;;;;;;;;741166;184;919085;-70
2020/12/15 00:12:31;;;;;;;26.45;14.25;;;;;;;;;;740965;185;918887;-71
2020/12/15 00:14:57;;;;;;;26.30;12.77;;;;;;;;;;744970;185;915336;-70
2020/12/15 00:17:23;;;;;;;22.20;12.87;;;;;;;;;;728058;189;915608;-70
2020/12/15 00:19:49;;;;;;;26.63;14.17;;;;;;;;;;724083;189;914704;-70
2020/12/15 00:22:15;;;;;;;26.47;12.10;;;;;;;;;;717681;190;919147;-69
2020/12/15 00:24:42;;;;;;;26.43;12.40;;;;;;;;;;729511;190;919193;-69
2020/12/15 00:27:08;;;;;;;26.67;15.10;;;;;;;;;;724636;190;918710;-67
2020/12/15 00:29:35;;;;;;;30.93;14.77;;;;;;;;;;700245;197;919035;-70
2020/12/15 00:32:00;;;;;;;30.60;15.90;;;;;;;;;;745000;186;919244;-70
2020/12/15 00:34:25;;;;;;;27.97;14.50;;;;;;;;;;739653;186;918823;-70
2020/12/15 00:36:51;;;;;;;38.40;16.73;;;;;;;;;;739136;185;919026;-69
2020/12/15 00:39:17;;;;;;;35.53;17.47;;;;;;;;;;748598;185;918637;-69
2020/12/15 00:41:43;;;;;;;28.90;16.37;;;;;;;;;;712963;190;3295861;-69
2020/12/15 00:44:09;;;;;;;26.70;13.80;;;;;;;;;;709701;195;918982;-69
2020/12/15 00:46:35;;;;;;;35.72;15.90;;;;;;;;;;732543;188;918603;-69
2020/12/15 00:49:00;;;;;;;25.37;15.73;;;;;;;;;;737644;188;918485;-69
2020/12/15 00:51:26;;;;;;;30.70;14.77;;;;;;;;;;734390;186;919605;-69
2020/12/15 00:53:52;;;;;;;30.40;15.63;;;;;;;;;;722691;190;918529;-68
2020/12/15 00:56:18;;;;;;;29.37;15.10;;;;;;;;;;713812;194;918797;-69
2020/12/15 00:58:44;;;;;;;28.33;14.70;;;;;;;;;;714763;193;919223;-70
2020/12/15 01:01:10;;;;;;;28.48;15.75;;;;;;;;;;714028;191;918596;-69
2020/12/15 01:03:36;;;;;;;36.50;17.63;;;;;;;;;;739991;187;919958;-70
2020/12/15 01:06:01;;;;;;;38.33;18.85;;;;;;;;;;727772;190;920162;-70
2020/12/15 01:08:27;;;;;;;29.30;16.33;;;;;;;;;;699070;198;917862;-69
2020/12/15 01:10:53;;;;;;;25.57;15.90;;;;;;;;;;722244;194;918625;-70
2020/12/15 01:13:19;;;;;;;28.73;14.10;;;;;;;;;;713024;194;917741;-70
2020/12/15 01:15:45;;;;;;;40.40;20.73;;;;;;;;;;713257;194;915391;-71
2020/12/15 01:18:11;;;;;;;45.67;24.50;;;;;;;;;;709984;194;1121493;-71
2020/12/15 01:20:36;;;;;;;37.37;20.67;;;;;;;;;;735848;188;918819;-70
2020/12/15 01:23:02;;;;;;;34.33;16.77;;;;;;;;;;734507;185;1213658;-71
2020/12/15 01:25:28;;;;;;;43.50;19.43;;;;;;;;;;721521;190;918925;-70
2020/12/15 01:27:54;;;;;;;33.30;17.50;;;;;;;;;;715852;193;917990;-72
2020/12/15 01:30:20;;;;;;;35.08;18.27;;;;;;;;;;741475;183;918366;-72
2020/12/15 01:32:46;;;;;;;33.90;18.87;;;;;;;;;;739881;185;918242;-72
2020/12/15 01:35:12;;;;;;;30.73;17.07;;;;;;;;;;746875;186;919163;-72
2020/12/15 01:37:37;;;;;;;28.73;15.18;;;;;;;;;;723093;189;918852;-72
2020/12/15 01:40:03;;;;;;;28.70;14.30;;;;;;;;;;727336;190;919367;-72
2020/12/15 01:42:29;;;;;;;33.13;16.83;;;;;;;;;;728801;190;919264;-72
2020/12/15 01:44:55;;;;;;;30.43;15.90;;;;;;;;;;727703;189;918457;-72
2020/12/15 01:47:21;;;;;;;37.93;18.47;;;;;;;;;;706742;195;919417;-72
2020/12/15 01:49:47;;;;;;;33.10;19.00;;;;;;;;;;718411;192;918679;-72
2020/12/15 01:52:12;;;;;;;42.60;23.45;;;;;;;;;;708568;193;919023;-72
2020/12/15 01:54:38;;;;;;;41.03;22.27;;;;;;;;;;711720;193;917748;-72
2020/12/15 01:57:04;;;;;;;38.07;21.00;;;;;;;;;;723352;190;919025;-73
2020/12/15 01:59:30;;;;;;;38.70;21.33;;;;;;;;;;721920;191;918445;-72
2020/12/15 02:01:56;;;;;;;40.10;21.50;;;;;;;;;;728327;189;945447;-72
2020/12/15 02:04:22;;;;;;;37.80;19.87;;;;;;;;;;741461;186;918675;-72
2020/12/15 02:06:47;;;;;;;41.73;20.13;;;;;;;;;;746480;186;918896;-73
2020/12/15 02:09:13;;;;;;;43.07;22.93;;;;;;;;;;720398;190;918565;-73
2020/12/15 02:11:39;;;;;;;45.50;23.63;;;;;;;;;;725138;190;918451;-73
2020/12/15 02:14:05;;;;;;;45.87;21.00;;;;;;;;;;718932;194;929881;-73
2020/12/15 02:16:31;;;;;;;41.77;22.80;;;;;;;;;;726381;190;918602;-73
2020/12/15 02:18:58;;;;;;;37.67;20.20;;;;;;;;;;715369;192;918878;-72
2020/12/15 02:21:24;;;;;;;30.17;17.67;;;;;;;;;;740137;184;919692;-72
2020/12/15 02:23:50;;;;;;;35.63;18.35;;;;;;;;;;736426;188;917829;-74
2020/12/15 02:26:16;;;;;;;31.23;18.40;;;;;;;;;;723539;189;919192;-73
2020/12/15 02:28:42;;;;;;;33.00;18.50;;;;;;;;;;734977;186;918985;-72
2020/12/15 02:31:08;;;;;;;36.03;18.80;;;;;;;;;;740842;185;1122861;-73
2020/12/15 02:33:33;;;;;;;31.37;18.60;;;;;;;;;;725903;190;920076;-73
2020/12/15 02:35:59;;;;;;;34.17;17.80;;;;;;;;;;736176;186;917980;-73
2020/12/15 02:38:25;;;;;;;33.40;17.93;;;;;;;;;;749303;185;914620;-72
2020/12/15 02:40:51;;;;;;;37.50;17.40;;;;;;;;;;739937;186;921393;-73
2020/12/15 02:43:17;;;;;;;29.37;16.80;;;;;;;;;;742053;185;928690;-73
2020/12/15 02:45:43;;;;;;;28.90;15.33;;;;;;;;;;734840;186;918554;-73
2020/12/15 02:48:08;;;;;;;33.07;15.70;;;;;;;;;;725554;189;918943;-72
2020/12/15 02:50:34;;;;;;;36.93;19.10;;;;;;;;;;700542;197;918607;-73
2020/12/15 02:53:00;;;;;;;25.80;16.27;;;;;;;;;;739073;185;918805;-73
2020/12/15 02:55:26;;;;;;;29.77;16.80;;;;;;;;;;743991;186;917520;-74
2020/12/15 02:57:52;;;;;;;31.50;17.50;;;;;;;;;;724043;190;918589;-72
2020/12/15 03:00:18;;;;;;;34.75;18.17;;;;;;;;;;724439;189;927289;-72
2020/12/15 03:02:46;;;;;;;31.80;19.00;;;;;;;;;;718768;193;918147;-73
2020/12/15 03:05:09;;;;;;;33.03;16.40;;;;;;;;;;714896;193;919168;-72
2020/12/15 03:07:35;;;;;;;34.80;17.13;;;;;;;;;;722902;189;876107;-72
2020/12/15 03:10:01;;;;;;;34.87;17.87;;;;;;;;;;724983;193;921376;-73
2020/12/15 03:12:28;;;;;;;32.33;16.70;;;;;;;;;;734800;188;1021186;-72
2020/12/15 03:14:54;;;;;;;30.60;14.57;;;;;;;;;;726195;189;918099;-72
2020/12/15 03:17:20;;;;;;;35.03;16.35;;;;;;;;;;726364;189;928518;-71
2020/12/15 03:19:46;;;;;;;40.00;22.00;;;;;;;;;;717634;193;918986;-72
2020/12/15 03:22:12;;;;;;;35.85;19.35;;;;;;;;;;716503;190;918575;-72
2020/12/15 03:24:38;;;;;;;34.67;16.40;;;;;;;;;;742250;186;918761;-73
2020/12/15 03:27:04;;;;;;;37.97;18.87;;;;;;;;;;745525;186;919084;-72
2020/12/15 03:29:30;;;;;;;33.83;17.43;;;;;;;;;;741286;185;919399;-73
2020/12/15 03:31:56;;;;;;;38.90;19.33;;;;;;;;;;736355;184;1269148;-73
2020/12/15 03:34:21;;;;;;;41.40;19.80;;;;;;;;;;739018;186;919609;-72
2020/12/15 03:36:47;;;;;;;45.87;21.33;;;;;;;;;;727812;190;918308;-73
2020/12/15 03:39:13;;;;;;;40.47;19.87;;;;;;;;;;736729;184;920581;-73
2020/12/15 03:41:39;;;;;;;42.27;20.57;;;;;;;;;;744686;186;915523;-73
2020/12/15 03:44:05;;;;;;;35.10;19.10;;;;;;;;;;726350;189;918636;-73
2020/12/15 03:46:31;;;;;;;35.57;18.13;;;;;;;;;;724434;190;916059;-73
2020/12/15 03:48:57;;;;;;;36.42;20.40;;;;;;;;;;721805;190;918719;-73
2020/12/15 03:51:22;;;;;;;36.43;18.73;;;;;;;;;;724854;188;914197;-73
2020/12/15 03:53:48;;;;;;;35.00;18.57;;;;;;;;;;721335;190;918757;-73
2020/12/15 03:56:14;;;;;;;37.90;18.87;;;;;;;;;;710322;194;917859;-72
2020/12/15 03:58:41;;;;;;;33.72;18.12;;;;;;;;;;709969;195;916756;-73
2020/12/15 04:01:06;;;;;;;40.70;19.60;;;;;;;;;;705381;193;918685;-73
2020/12/15 04:03:32;;;;;;;41.08;19.10;;;;;;;;;;712986;192;918744;-73
2020/12/15 04:05:57;;;;;;;34.07;16.57;;;;;;;;;;718213;193;915397;-73
2020/12/15 04:08:25;;;;;;;35.07;18.20;;;;;;;;;;712463;193;914896;-73
2020/12/15 04:10:49;;;;;;;34.93;16.70;;;;;;;;;;714613;192;916334;-73
2020/12/15 04:13:15;;;;;;;30.48;16.35;;;;;;;;;;718954;193;924443;-73
2020/12/15 04:15:41;;;;;;;29.80;15.80;;;;;;;;;;714167;192;918136;-72
2020/12/15 04:18:07;;;;;;;31.73;17.60;;;;;;;;;;725703;190;918623;-73
2020/12/15 04:20:32;;;;;;;29.80;16.77;;;;;;;;;;718756;193;975214;-72
2020/12/15 04:22:58;;;;;;;32.03;16.33;;;;;;;;;;720523;193;917390;-73
2020/12/15 04:25:24;;;;;;;32.45;17.60;;;;;;;;;;722868;189;919088;-73
2020/12/15 04:27:50;;;;;;;33.80;14.40;;;;;;;;;;713791;193;918848;-72
2020/12/15 04:30:16;;;;;;;28.00;16.17;;;;;;;;;;719590;193;917341;-72
2020/12/15 04:32:42;;;;;;;30.13;15.87;;;;;;;;;;715875;190;919355;-73
2020/12/15 04:35:08;;;;;;;32.07;16.90;;;;;;;;;;739089;186;926560;-73
2020/12/15 04:37:35;;;;;;;38.07;16.20;;;;;;;;;;743481;184;918498;-72
2020/12/15 04:40:00;;;;;;;30.87;16.90;;;;;;;;;;722384;189;917610;-73
2020/12/15 04:42:26;;;;;;;30.15;16.00;;;;;;;;;;739212;188;918933;-73
2020/12/15 04:44:53;;;;;;;35.65;17.10;;;;;;;;;;737613;186;914417;-72
2020/12/15 04:47:19;;;;;;;33.50;16.60;;;;;;;;;;735352;188;918695;-73
2020/12/15 04:49:51;;;;;;;27.27;14.43;;;;;;;;;;736605;186;919795;-73
2020/12/15 04:52:16;;;;;;;24.73;14.40;;;;;;;;;;723499;190;913661;-73
2020/12/15 04:54:42;;;;;;;34.93;17.30;;;;;;;;;;744012;187;918638;-73
2020/12/15 04:57:08;;;;;;;34.85;17.87;;;;;;;;;;740736;185;918540;-73
2020/12/15 04:59:34;;;;;;;30.43;15.47;;;;;;;;;;738981;185;919242;-72
2020/12/15 05:02:02;;;;;;;39.57;19.83;;;;;;;;;;737622;184;1411860;-72
2020/12/15 05:04:26;;;;;;;51.40;21.93;;;;;;;;;;728699;189;918773;-72
2020/12/15 05:06:53;;;;;;;36.40;17.73;;;;;;;;;;727257;189;918231;-72
2020/12/15 05:09:21;;;;;;;43.17;20.93;;;;;;;;;;706220;197;918848;-73
2020/12/15 05:11:47;;;;;;;47.58;21.45;;;;;;;;;;715803;193;920798;-73
2020/12/15 05:14:13;;;;;;;44.53;20.13;;;;;;;;;;715275;193;966283;-73
2020/12/15 05:16:39;;;;;;;59.77;26.60;;;;;;;;;;715068;193;918929;-72
2020/12/15 05:19:05;;;;;;;48.97;23.87;;;;;;;;;;719663;192;917757;-72
2020/12/15 05:21:30;;;;;;;60.53;25.57;;;;;;;;;;709446;192;1053992;-71
2020/12/15 05:23:56;;;;;;;44.63;21.60;;;;;;;;;;706936;193;918820;-73
2020/12/15 05:26:22;;;;;;;51.27;25.90;;;;;;;;;;740051;186;919582;-72
2020/12/15 05:28:48;;;;;;;83.30;35.23;;;;;;;;;;725847;189;918937;-73
2020/12/15 05:31:14;;;;;;;58.67;26.20;;;;;;;;;;701957;197;918587;-73
2020/12/15 05:33:40;;;;;;;74.27;31.23;;;;;;;;;;737666;186;919982;-72
2020/12/15 05:36:05;;;;;;;66.28;27.27;;;;;;;;;;735732;188;1033043;-73
2020/12/15 05:38:31;;;;;;;53.70;26.53;;;;;;;;;;734259;186;924169;-73
2020/12/15 05:40:57;;;;;;;74.15;31.10;;;;;;;;;;724115;189;914098;-72
2020/12/15 05:43:24;;;;;;;89.83;35.40;;;;;;;;;;723437;190;922395;-73
2020/12/15 05:45:50;;;;;;;67.50;32.07;;;;;;;;;;745479;184;918860;-72
2020/12/15 05:48:16;;;;;;;80.12;37.13;;;;;;;;;;735164;186;918869;-72
2020/12/15 05:50:41;;;;;;;93.03;37.37;;;;;;;;;;745871;186;935394;-73
2020/12/15 05:53:07;;;;;;;80.43;37.10;;;;;;;;;;720967;190;918557;-73
2020/12/15 05:55:33;;;;;;;76.90;31.80;;;;;;;;;;723214;190;919120;-72
2020/12/15 05:57:59;;;;;;;78.10;34.47;;;;;;;;;;729327;190;919730;-73
2020/12/15 06:00:25;;;;;;;81.40;35.87;;;;;;;;;;725424;189;918351;-73
2020/12/15 06:02:58;;;;;;;79.03;36.13;;;;;;;;;;702825;195;923243;-73
2020/12/15 06:05:25;;;;;;;70.60;33.60;;;;;;;;;;708489;194;918446;-73
2020/12/15 06:07:51;;;;;;;69.80;31.47;;;;;;;;;;740008;188;918952;-72
2020/12/15 06:10:17;;;;;;;65.47;30.40;;;;;;;;;;724804;190;919183;-73
2020/12/15 06:12:43;;;;;;;53.83;28.10;;;;;;;;;;717895;193;1021248;-73
2020/12/15 06:15:09;;;;;;;57.85;28.30;;;;;;;;;;722289;193;918261;-72
2020/12/15 06:17:35;;;;;;;36.80;20.90;;;;;;;;;;735954;188;919531;-73
2020/12/15 06:20:01;;;;;;;45.35;19.62;;;;;;;;;;724528;190;919076;-73
2020/12/15 06:22:27;;;;;;;43.27;20.07;;;;;;;;;;725924;189;918720;-73
2020/12/15 06:24:55;;;;;;;38.90;20.00;;;;;;;;;;730457;189;918419;-73
2020/12/15 06:27:21;;;;;;;45.87;23.17;;;;;;;;;;730595;190;632607;-72
2020/12/15 06:29:46;;;;;;;44.85;21.87;;;;;;;;;;729119;189;666397;-71
2020/12/15 06:32:15;;;;;;;38.77;22.07;;;;;;;;;;723755;194;630409;-73
2020/12/15 06:34:41;;;;;;;45.70;22.40;;;;;;;;;;712021;193;918400;-73
2020/12/15 06:37:07;;;;;;;37.43;19.63;;;;;;;;;;729155;189;621506;-73
2020/12/15 06:39:33;;;;;;;43.90;18.50;;;;;;;;;;737452;186;918637;-72
2020/12/15 06:41:59;;;;;;;41.83;22.27;;;;;;;;;;734890;189;918848;-73
2020/12/15 06:44:29;;;;;;;37.37;20.23;;;;;;;;;;719824;189;915443;-74
2020/12/15 06:46:53;;;;;;;37.67;18.97;;;;;;;;;;745990;186;915935;-72
2020/12/15 06:49:19;;;;;;;44.80;20.37;;;;;;;;;;750534;184;822141;-72
2020/12/15 06:51:45;;;;;;;37.40;20.90;;;;;;;;;;718551;189;1944923;-73
2020/12/15 06:54:11;;;;;;;47.17;19.97;;;;;;;;;;703609;195;919344;-74
2020/12/15 06:56:37;;;;;;;44.07;23.90;;;;;;;;;;731946;188;918297;-73
2020/12/15 06:59:03;;;;;;;45.27;22.00;;;;;;;;;;743172;186;919626;-73
2020/12/15 07:01:29;;;;;;;42.03;19.62;;;;;;;;;;725954;189;920059;-73
2020/12/15 07:03:55;;;;;;;47.47;26.80;;;;;;;;;;711564;195;919590;-73
2020/12/15 07:06:21;;;;;;;49.63;24.00;;;;;;;;;;713282;193;918675;-73
2020/12/15 07:08:46;;;;;;;50.72;26.30;;;;;;;;;;713436;192;920948;-72
2020/12/15 07:11:12;;;;;;;57.77;25.93;;;;;;;;;;719610;191;1046005;-72
2020/12/15 07:13:38;;;;;;;56.83;26.63;;;;;;;;;;722890;191;917177;-73
2020/12/15 07:16:04;;;;;;;44.93;23.10;;;;;;;;;;707353;193;918131;-73
2020/12/15 07:18:32;;;;;;;45.40;23.60;;;;;;;;;;717570;190;895607;-73
2020/12/15 07:20:57;;;;;;;43.40;22.00;;;;;;;;;;719893;192;917497;-72
2020/12/15 07:23:23;;;;;;;53.15;24.10;;;;;;;;;;726459;190;918303;-73
2020/12/15 07:25:53;;;;;;;41.77;23.00;;;;;;;;;;726711;190;917902;-72
2020/12/15 07:28:19;;;;;;;42.50;20.60;;;;;;;;;;725552;190;919259;-73
2020/12/15 07:30:47;;;;;;;39.27;21.20;;;;;;;;;;722485;191;918610;-73
2020/12/15 07:33:10;;;;;;;43.13;19.43;;;;;;;;;;739188;186;931098;-73
2020/12/15 07:35:36;;;;;;;36.00;19.37;;;;;;;;;;724172;190;916146;-73
2020/12/15 07:38:02;;;;;;;38.80;18.33;;;;;;;;;;719140;191;903465;-73
2020/12/15 07:40:29;;;;;;;41.43;19.20;;;;;;;;;;740270;186;915575;-73
2020/12/15 07:42:54;;;;;;;42.60;19.53;;;;;;;;;;740531;186;918482;-73
2020/12/15 07:45:20;;;;;;;38.80;19.33;;;;;;;;;;744564;188;918570;-73
2020/12/15 07:47:46;;;;;;;46.83;19.37;;;;;;;;;;723767;189;918441;-73
2020/12/15 07:50:11;;;;;;;42.90;18.97;;;;;;;;;;724938;189;918793;-73
2020/12/15 07:52:37;;;;;;;43.20;19.37;;;;;;;;;;738820;186;1592766;-74
2020/12/15 07:55:06;;;;;;;48.63;20.80;;;;;;;;;;724145;189;931085;-73
2020/12/15 07:57:32;;;;;;;44.63;19.77;;;;;;;;;;721952;190;926456;-74
2020/12/15 07:59:58;;;;;;;38.70;19.37;;;;;;;;;;743579;186;921609;-76
2020/12/15 08:02:23;;;;;;;46.97;21.50;;;;;;;;;;745509;186;824282;-75
2020/12/15 08:04:49;;;;;;;65.00;22.25;;;;;;;;;;738757;186;919293;-75
2020/12/15 08:07:15;;;;;;;63.00;24.40;;;;;;;;;;725295;187;917358;-75
2020/12/15 08:09:41;;;;;;;78.17;27.33;;;;;;;;;;742995;185;921261;-75
2020/12/15 08:12:07;;;;;;;62.00;26.10;;;;;;;;;;723646;188;919371;-75
2020/12/15 08:14:33;;;;;;;60.70;25.80;;;;;;;;;;706041;195;918153;-74
2020/12/15 08:16:58;;;;;;;68.63;25.20;;;;;;;;;;727258;191;918583;-74
2020/12/15 08:19:24;;;;;;;49.47;22.37;;;;;;;;;;737007;186;948435;-75
2020/12/15 08:21:50;;;;;;;56.20;23.60;;;;;;;;;;724249;190;919695;-73
2020/12/15 08:24:18;;;;;;;45.20;21.30;;;;;;;;;;720425;190;919415;-71
2020/12/15 08:26:44;;;;;;;48.17;20.60;;;;;;;;;;714329;189;918574;-71
2020/12/15 08:29:10;;;;;;;47.27;22.80;;;;;;;;;;710873;192;983558;-70
2020/12/15 08:31:36;;;;;;;49.00;20.60;;;;;;;;;;744807;186;918937;-70
2020/12/15 08:34:02;;;;;;;39.17;19.60;;;;;;;;;;742367;186;918124;-67
2020/12/15 08:36:28;;;;;;;48.80;20.77;;;;;;;;;;734474;186;927562;-68
2020/12/15 08:38:53;;;;;;;37.97;18.30;;;;;;;;;;731193;185;915432;-67
2020/12/15 08:41:19;;;;;;;36.80;16.80;;;;;;;;;;737868;186;919468;-67
2020/12/15 08:43:48;;;;;;;36.17;16.70;;;;;;;;;;725170;190;933621;-67
2020/12/15 08:46:14;;;;;;;33.63;16.83;;;;;;;;;;723700;190;919358;-67
2020/12/15 08:48:40;;;;;;;35.73;16.40;;;;;;;;;;701982;197;919262;-66
2020/12/15 08:51:14;;;;;;;26.97;13.40;;;;;;;;;;717905;193;918730;-66
2020/12/15 08:53:40;;;;;;;29.20;12.20;;;;;;;;;;712434;193;932258;-66
2020/12/15 08:56:12;;;;;;;30.45;13.98;;;;;;;;;;712710;193;920246;-67
2020/12/15 08:58:38;;;;;;;22.70;13.30;;;;;;;;;;714081;193;918884;-66
2020/12/15 09:01:03;;;;;;;23.17;12.90;;;;;;;;;;715190;192;1037521;-66
2020/12/15 09:03:31;;;;;;;34.13;15.90;;;;;;;;;;713904;192;919197;-66
2020/12/15 09:05:55;;;;;;;27.53;14.00;;;;;;;;;;711902;192;921705;-66
2020/12/15 09:08:21;;;;;;;33.43;16.07;;;;;;;;;;719759;192;904962;-65
2020/12/15 09:10:47;;;;;;;25.17;13.67;;;;;;;;;;741024;185;916006;-66
2020/12/15 09:13:13;;;;;;;30.67;16.50;;;;;;;;;;744665;184;919202;-65
2020/12/15 09:15:44;;;;;;;30.53;14.63;;;;;;;;;;746867;185;924312;-66
2020/12/15 09:18:12;;;;;;;32.70;14.82;;;;;;;;;;712330;193;891998;-65
2020/12/15 09:20:36;;;;;;;22.23;14.00;;;;;;;;;;713302;192;1432639;-65
2020/12/15 09:23:02;;;;;;;34.10;17.15;;;;;;;;;;724426;190;918954;-65
2020/12/15 09:25:28;;;;;;;26.47;14.70;;;;;;;;;;726477;192;918660;-64
2020/12/15 09:27:54;;;;;;;23.43;12.30;;;;;;;;;;729254;190;919336;-64
2020/12/15 09:30:20;;;;;;;25.40;14.00;;;;;;;;;;725771;190;919062;-64
2020/12/15 09:32:46;;;;;;;26.13;14.20;;;;;;;;;;718329;194;919092;-64
2020/12/15 09:35:12;;;;;;;27.40;13.03;;;;;;;;;;725939;190;919587;-63
2020/12/15 09:37:38;;;;;;;25.90;13.43;;;;;;;;;;714984;193;918896;-65
2020/12/15 09:40:04;;;;;;;21.47;11.37;;;;;;;;;;717797;193;919044;-64
2020/12/15 09:42:31;;;;;;;19.97;11.63;;;;;;;;;;718961;190;919071;-64
2020/12/15 09:44:55;;;;;;;23.03;11.57;;;;;;;;;;710422;195;919260;-64
2020/12/15 09:47:21;;;;;;;17.60;10.33;;;;;;;;;;712154;192;918659;-64
2020/12/15 09:49:47;;;;;;;22.10;10.90;;;;;;;;;;740601;188;919655;-64
2020/12/15 09:52:13;;;;;;;19.30;9.87;;;;;;;;;;732553;187;918564;-64
2020/12/15 09:54:39;;;;;;;26.58;11.73;;;;;;;;;;739973;185;918073;-64
2020/12/15 09:57:05;;;;;;;19.83;11.17;;;;;;;;;;744170;186;918716;-64
2020/12/15 09:59:30;;;;;;;20.60;11.33;;;;;;;;;;729000;186;919398;-65
2020/12/15 10:02:00;;;;;;;18.27;9.97;;;;;;;;;;739781;186;920076;-65
2020/12/15 10:04:26;;;;;;;21.47;11.47;;;;;;;;;;742807;185;918208;-65
2020/12/15 10:06:52;;;;;;;18.20;9.10;;;;;;;;;;725300;190;919422;-63
2020/12/15 10:09:18;;;;;;;19.87;10.57;;;;;;;;;;734246;186;918885;-64
2020/12/15 10:11:43;;;;;;;17.67;10.10;;;;;;;;;;726854;189;919523;-64
2020/12/15 10:14:09;;;;;;;17.17;8.45;;;;;;;;;;728148;189;946645;-65
2020/12/15 10:16:35;;;;;;;15.13;8.90;;;;;;;;;;719777;194;918838;-65
2020/12/15 10:19:01;;;;;;;24.90;9.93;;;;;;;;;;718805;190;918523;-64
2020/12/15 10:21:27;;;;;;;18.80;8.60;;;;;;;;;;731812;189;927773;-64
2020/12/15 10:23:53;;;;;;;15.57;8.17;;;;;;;;;;738401;186;923720;-64
2020/12/15 10:26:19;;;;;;;17.87;9.70;;;;;;;;;;739645;186;918463;-65
2020/12/15 10:28:45;;;;;;;17.60;9.70;;;;;;;;;;729896;186;2126687;-65
2020/12/15 10:31:10;;;;;;;15.07;9.20;;;;;;;;;;739950;185;909390;-65
2020/12/15 10:33:36;;;;;;;14.53;9.37;;;;;;;;;;721893;190;918508;-64
2020/12/15 10:36:02;;;;;;;20.90;10.83;;;;;;;;;;726351;192;918718;-65
2020/12/15 10:38:28;;;;;;;16.47;9.90;;;;;;;;;;740224;186;919053;-65
2020/12/15 10:40:54;;;;;;;17.03;9.20;;;;;;;;;;723864;189;918248;-64
2020/12/15 10:43:20;;;;;;;17.90;11.20;;;;;;;;;;706348;195;919620;-65
2020/12/15 10:45:46;;;;;;;18.03;10.10;;;;;;;;;;712855;193;1019532;-65
2020/12/15 10:48:11;;;;;;;15.00;9.33;;;;;;;;;;713801;193;921646;-65
2020/12/15 10:50:39;;;;;;;16.50;9.80;;;;;;;;;;710122;191;1844102;-65
2020/12/15 10:53:08;;;;;;;15.13;8.87;;;;;;;;;;717670;193;916956;-65
2020/12/15 10:55:29;;;;;;;14.15;9.23;;;;;;;;;;712548;194;922479;-65
2020/12/15 10:57:55;;;;;;;15.20;8.30;;;;;;;;;;714433;193;919832;-65
2020/12/15 11:00:21;;;;;;;15.53;8.63;;;;;;;;;;712438;192;922137;-65
2020/12/15 11:02:46;;;;;;;15.57;8.40;;;;;;;;;;722786;190;918302;-65
2020/12/15 11:05:12;;;;;;;15.77;8.63;;;;;;;;;;714738;192;919654;-64
2020/12/15 11:07:38;;;;;;;17.60;9.00;;;;;;;;;;721195;192;917018;-65
2020/12/15 11:10:04;;;;;;;16.33;10.77;;;;;;;;;;722280;189;913844;-65
2020/12/15 11:12:30;;;;;;;15.77;8.90;;;;;;;;;;719285;189;921495;-65
2020/12/15 11:14:56;;;;;;;15.30;10.63;;;;;;;;;;737855;185;918517;-65
2020/12/15 11:17:21;;;;;;;17.67;9.77;;;;;;;;;;731440;187;918847;-65
2020/12/15 11:19:48;;;;;;;20.70;9.33;;;;;;;;;;738223;186;918321;-65
2020/12/15 11:22:13;;;;;;;17.50;10.73;;;;;;;;;;737358;185;921929;-64
2020/12/15 11:24:40;;;;;;;15.80;10.90;;;;;;;;;;747178;186;919375;-65
2020/12/15 11:27:05;;;;;;;15.67;10.97;;;;;;;;;;723758;190;913359;-65
2020/12/15 11:29:31;;;;;;;16.53;10.80;;;;;;;;;;739614;185;906076;-65
2020/12/15 11:31:57;;;;;;;16.00;10.13;;;;;;;;;;737750;185;2273123;-65
2020/12/15 11:34:22;;;;;;;15.33;9.13;;;;;;;;;;726180;190;918016;-64
2020/12/15 11:36:53;;;;;;;21.00;10.83;;;;;;;;;;723554;190;918651;-65
2020/12/15 11:39:18;;;;;;;14.10;9.50;;;;;;;;;;711259;194;928961;-65
2020/12/15 11:41:46;;;;;;;17.35;8.95;;;;;;;;;;716319;194;919039;-65
2020/12/15 11:44:10;;;;;;;22.57;10.97;;;;;;;;;;712872;194;919105;-65
2020/12/15 11:46:35;;;;;;;20.10;10.50;;;;;;;;;;710495;194;918912;-65
2020/12/15 11:49:01;;;;;;;15.30;8.30;;;;;;;;;;719683;191;920519;-65
2020/12/15 11:51:27;;;;;;;16.17;8.63;;;;;;;;;;710928;193;919572;-64
2020/12/15 11:53:53;;;;;;;19.20;11.07;;;;;;;;;;718286;193;889218;-65
2020/12/15 11:56:20;;;;;;;19.30;10.43;;;;;;;;;;703424;199;918678;-66
2020/12/15 11:58:45;;;;;;;12.37;8.17;;;;;;;;;;740832;185;918740;-65
2020/12/15 12:01:11;;;;;;;17.13;9.10;;;;;;;;;;722836;190;932722;-64
2020/12/15 12:03:37;;;;;;;14.30;9.30;;;;;;;;;;727394;190;918723;-65
2020/12/15 12:06:03;;;;;;;15.15;10.35;;;;;;;;;;724275;190;918384;-65
2020/12/15 12:08:29;;;;;;;15.10;8.80;;;;;;;;;;739159;186;919966;-65
2020/12/15 12:10:55;;;;;;;17.63;10.37;;;;;;;;;;718996;190;957195;-64
2020/12/15 12:13:20;;;;;;;15.20;7.47;;;;;;;;;;717837;192;919364;-65
2020/12/15 12:15:46;;;;;;;14.98;7.82;;;;;;;;;;734950;186;919216;-65
2020/12/15 12:18:12;;;;;;;13.23;9.43;;;;;;;;;;733528;186;1057648;-65
2020/12/15 12:20:38;;;;;;;18.12;9.20;;;;;;;;;;747067;186;918850;-65
2020/12/15 12:23:04;;;;;;;15.00;9.17;;;;;;;;;;723744;190;919467;-65
2020/12/15 12:25:30;;;;;;;12.23;8.37;;;;;;;;;;727003;190;919430;-66
2020/12/15 12:27:55;;;;;;;15.50;9.10;;;;;;;;;;730198;189;918379;-65
2020/12/15 12:30:21;;;;;;;12.60;8.17;;;;;;;;;;743310;184;918700;-66
2020/12/15 12:32:48;;;;;;;14.38;8.40;;;;;;;;;;723305;189;919430;-66
2020/12/15 12:35:14;;;;;;;13.00;9.07;;;;;;;;;;722247;190;918821;-65
2020/12/15 12:37:40;;;;;;;19.07;9.77;;;;;;;;;;729034;187;919512;-65
2020/12/15 12:40:06;;;;;;;15.93;10.20;;;;;;;;;;717121;192;1071359;-65
2020/12/15 12:42:32;;;;;;;16.83;8.73;;;;;;;;;;738513;187;919157;-65
2020/12/15 12:44:57;;;;;;;16.40;9.63;;;;;;;;;;744733;185;917930;-65
2020/12/15 12:47:23;;;;;;;21.60;10.00;;;;;;;;;;728000;190;918775;-65
2020/12/15 12:49:49;;;;;;;16.37;9.90;;;;;;;;;;699679;198;919210;-66
2020/12/15 12:52:15;;;;;;;17.30;9.97;;;;;;;;;;727242;190;918905;-65
2020/12/15 12:54:41;;;;;;;15.63;9.27;;;;;;;;;;714240;193;918613;-65
2020/12/15 12:57:07;;;;;;;11.85;8.82;;;;;;;;;;717595;192;918957;-65
2020/12/15 12:59:33;;;;;;;17.23;9.70;;;;;;;;;;740377;185;918696;-64
2020/12/15 13:02:00;;;;;;;16.07;8.70;;;;;;;;;;729136;190;919312;-64
2020/12/15 13:04:26;;;;;;;13.30;8.23;;;;;;;;;;704357;196;919410;-65
2020/12/15 13:06:52;;;;;;;15.50;8.80;;;;;;;;;;707552;191;919392;-65
2020/12/15 13:09:18;;;;;;;12.83;7.80;;;;;;;;;;717181;191;918763;-65
2020/12/15 13:11:44;;;;;;;13.33;8.40;;;;;;;;;;712114;196;920231;-64
2020/12/15 13:14:10;;;;;;;13.35;8.35;;;;;;;;;;713617;193;918497;-65
2020/12/15 13:16:35;;;;;;;14.40;8.20;;;;;;;;;;716905;192;919363;-65
2020/12/15 13:19:02;;;;;;;14.03;8.03;;;;;;;;;;711327;194;918592;-65
2020/12/15 13:21:27;;;;;;;15.33;8.20;;;;;;;;;;710984;192;1140084;-64
2020/12/15 13:23:53;;;;;;;17.37;8.80;;;;;;;;;;716948;194;919559;-65
2020/12/15 13:26:22;;;;;;;18.40;9.10;;;;;;;;;;710580;192;1007108;-64
2020/12/15 13:28:45;;;;;;;12.05;8.18;;;;;;;;;;729803;189;919191;-65
2020/12/15 13:31:11;;;;;;;13.65;8.80;;;;;;;;;;723487;192;922495;-64
2020/12/15 13:33:37;;;;;;;15.60;8.80;;;;;;;;;;722927;192;918559;-65
2020/12/15 13:36:03;;;;;;;12.23;7.77;;;;;;;;;;724574;189;919095;-65
2020/12/15 13:38:29;;;;;;;12.60;7.83;;;;;;;;;;740447;186;918988;-65
2020/12/15 13:40:54;;;;;;;12.23;8.00;;;;;;;;;;741615;186;920292;-65
2020/12/15 13:43:20;;;;;;;12.97;8.07;;;;;;;;;;742607;186;919115;-65
2020/12/15 13:45:46;;;;;;;16.57;9.33;;;;;;;;;;736265;186;907127;-65
2020/12/15 13:48:12;;;;;;;12.52;8.18;;;;;;;;;;744802;186;918630;-64
2020/12/15 13:50:38;;;;;;;16.90;9.37;;;;;;;;;;725353;189;919284;-67
2020/12/15 13:53:04;;;;;;;13.60;8.30;;;;;;;;;;702205;197;919062;-65
2020/12/15 13:55:30;;;;;;;13.63;7.73;;;;;;;;;;722697;192;908662;-65
2020/12/15 13:57:55;;;;;;;13.63;8.87;;;;;;;;;;737978;186;927232;-65